Terminal Aerodrome Forecast
Issued by NWS Sterling, VA

Current Version | Previous Version | Graphics & Text | Print | Product List | Glossary On
Versions: 1 2 3 4 5 6 7 8 9 10 11 12 13
000
FTUS41 KLWX 240540
TAFMRB
TAF
KMRB 240540Z 2406/2506 07004KT P6SM -SN SCT035 OVC060
     FM241400 08005KT P6SM SCT035 OVC060
     FM250000 VRB03KT P6SM SCT040=

USA.gov is the U.S. government's official web portal to all federal, state and local government web resources and services.